createdAt,value
2018-01-15T00:02:24.286Z,102048.98
2018-01-15T00:04:50.051Z,102039.52
2018-01-15T00:07:15.802Z,102037.70
2018-01-15T00:09:41.551Z,102033.36
2018-01-15T00:12:07.314Z,102028.95
2018-01-15T00:14:33.071Z,102028.99
2018-01-15T00:16:58.843Z,102019.67
2018-01-15T00:19:24.610Z,102015.58
2018-01-15T00:21:50.375Z,102007.55
2018-01-15T00:24:16.126Z,102014.80
2018-01-15T00:26:41.891Z,102001.33
2018-01-15T00:29:07.647Z,101994.59
2018-01-15T00:31:33.406Z,101990.32
2018-01-15T00:33:59.159Z,101982.41
2018-01-15T00:36:24.926Z,101982.41
2018-01-15T00:38:50.684Z,101968.35
2018-01-15T00:41:16.458Z,101967.91
2018-01-15T00:43:42.220Z,101957.64
2018-01-15T00:46:07.974Z,101951.82
2018-01-15T00:48:33.741Z,101950.72
2018-01-15T00:50:59.511Z,101943.58
2018-01-15T00:53:25.259Z,101937.88
2018-01-15T00:55:51.018Z,101936.14
2018-01-15T00:58:16.787Z,101932.27
2018-01-15T01:00:42.530Z,101926.69
2018-01-15T01:03:08.301Z,101914.36
2018-01-15T01:05:34.055Z,101916.25
2018-01-15T01:07:59.817Z,101913.94
2018-01-15T01:10:25.583Z,101914.30
2018-01-15T01:12:51.342Z,101905.63
2018-01-15T01:15:17.094Z,101899.73
2018-01-15T01:17:42.864Z,101889.14
2018-01-15T01:20:08.615Z,101889.22
2018-01-15T01:22:34.376Z,101881.83
2018-01-15T01:25:00.126Z,101877.83
2018-01-15T01:27:25.895Z,101875.18
2018-01-15T01:29:51.657Z,101871.73
2018-01-15T01:32:17.409Z,101871.91
2018-01-15T01:34:43.174Z,101874.72
2018-01-15T01:37:08.922Z,101869.88
2018-01-15T01:39:34.690Z,101870.30
2018-01-15T01:42:00.455Z,101865.88
2018-01-15T01:44:26.218Z,101851.63
2018-01-15T01:46:51.978Z,101852.53
2018-01-15T01:49:17.757Z,101837.48
2018-01-15T01:51:43.518Z,101834.77
2018-01-15T01:54:09.275Z,101834.09
2018-01-15T01:56:35.026Z,101832.02
2018-01-15T01:59:00.795Z,101832.19
2018-01-15T02:01:26.539Z,101831.36
2018-01-15T02:03:52.303Z,101832.89
2018-01-15T02:06:18.051Z,101846.69
2018-01-15T02:08:43.834Z,101845.97
2018-01-15T02:11:09.578Z,101841.57
2018-01-15T02:13:35.332Z,101834.25
2018-01-15T02:16:01.107Z,101825.17
2018-01-15T02:18:26.845Z,101817.22
2018-01-15T02:20:52.618Z,101807.59
2018-01-15T02:23:18.362Z,101812.84
2018-01-15T02:25:44.122Z,101808.56
2018-01-15T02:28:09.870Z,101803.59
2018-01-15T02:30:35.631Z,101797.94
2018-01-15T02:33:01.384Z,101787.73
2018-01-15T02:35:27.146Z,101781.22
2018-01-15T02:37:52.906Z,101770.00
2018-01-15T02:40:18.677Z,101772.53
2018-01-15T02:42:44.426Z,101770.44
2018-01-15T02:45:10.203Z,101774.50
2018-01-15T02:47:35.968Z,101772.47
2018-01-15T02:50:01.734Z,101760.41
2018-01-15T02:52:27.489Z,101760.71
2018-01-15T02:54:53.268Z,101763.08
2018-01-15T02:57:19.015Z,101755.47
2018-01-15T02:59:44.763Z,101748.59
2018-01-15T03:02:10.531Z,101735.55
2018-01-15T03:04:36.275Z,101727.66
2018-01-15T03:07:02.062Z,101729.59
2018-01-15T03:09:27.802Z,101726.94
2018-01-15T03:11:53.564Z,101720.12
2018-01-15T03:14:19.309Z,101714.20
2018-01-15T03:16:45.086Z,101715.31
2018-01-15T03:19:10.835Z,101711.43
2018-01-15T03:21:36.605Z,101712.05
2018-01-15T03:24:02.358Z,101703.14
2018-01-15T03:26:28.118Z,101696.79
2018-01-15T03:28:53.877Z,101683.26
2018-01-15T03:31:19.632Z,101675.77
2018-01-15T03:33:45.390Z,101669.05
2018-01-15T03:36:11.146Z,101667.80
2018-01-15T03:38:36.898Z,101657.96
2018-01-15T03:41:02.665Z,101654.97
2018-01-15T03:43:28.427Z,101642.73
2018-01-15T03:45:54.183Z,101633.84
2018-01-15T03:48:19.962Z,101629.78
2018-01-15T03:50:45.714Z,101619.95
2018-01-15T03:53:11.467Z,101615.91
2018-01-15T03:55:37.223Z,101619.36
2018-01-15T03:58:03.004Z,101619.58
2018-01-15T04:00:28.751Z,101622.77
2018-01-15T04:02:54.518Z,101623.63
2018-01-15T04:05:20.270Z,101616.19
2018-01-15T04:07:46.043Z,101609.92
2018-01-15T04:10:11.792Z,101598.89
2018-01-15T04:12:37.559Z,101587.49
2018-01-15T04:15:03.344Z,101584.11
2018-01-15T04:17:29.153Z,101575.37
2018-01-15T04:19:54.896Z,101574.14
2018-01-15T04:22:20.666Z,101574.23
2018-01-15T04:24:46.421Z,101558.57
2018-01-15T04:27:12.175Z,101550.70
2018-01-15T04:29:37.933Z,101542.71
2018-01-15T04:32:03.678Z,101545.97
2018-01-15T04:34:29.438Z,101547.42
2018-01-15T04:36:55.202Z,101542.49
2018-01-15T04:39:20.978Z,101546.22
2018-01-15T04:41:46.718Z,101530.77
2018-01-15T04:44:12.486Z,101530.50
2018-01-15T04:46:38.242Z,101520.98
2018-01-15T04:49:04.017Z,101516.94
2018-01-15T04:51:29.770Z,101507.57
2018-01-15T04:53:55.530Z,101504.42
2018-01-15T04:56:21.278Z,101501.59
2018-01-15T04:58:47.057Z,101489.92
2018-01-15T05:01:12.801Z,101485.73
2018-01-15T05:03:38.551Z,101482.73
2018-01-15T05:06:04.323Z,101476.19
2018-01-15T05:08:30.066Z,101458.44
2018-01-15T05:10:55.826Z,101468.36
2018-01-15T05:13:21.569Z,101459.89
2018-01-15T05:15:47.330Z,101454.70
2018-01-15T05:18:13.085Z,101451.71
2018-01-15T05:20:38.838Z,101453.80
2018-01-15T05:23:04.594Z,101451.61
2018-01-15T05:25:30.363Z,101439.04
2018-01-15T05:27:56.118Z,101431.00
2018-01-15T05:30:21.890Z,101430.47
2018-01-15T05:32:47.645Z,101432.46
2018-01-15T05:35:13.407Z,101435.11
2018-01-15T05:37:39.154Z,101434.80
2018-01-15T05:40:04.926Z,101428.31
2018-01-15T05:42:30.738Z,101425.02
2018-01-15T05:44:56.507Z,101413.74
2018-01-15T05:47:22.263Z,101415.84
2018-01-15T05:49:48.030Z,101417.89
2018-01-15T05:52:13.790Z,101412.70
2018-01-15T05:54:39.550Z,101398.89
2018-01-15T05:57:05.333Z,101398.89
2018-01-15T05:59:31.071Z,101394.24
2018-01-15T06:01:56.827Z,101383.66
2018-01-15T06:04:22.569Z,101385.84
2018-01-15T06:06:48.341Z,101380.70
2018-01-15T06:09:14.087Z,101373.38
2018-01-15T06:11:39.842Z,101370.23
2018-01-15T06:14:05.599Z,101365.50
2018-01-15T06:16:31.350Z,101367.92
2018-01-15T06:18:57.095Z,101361.25
2018-01-15T06:21:22.853Z,101354.72
2018-01-15T06:23:48.598Z,101342.83
2018-01-15T06:26:14.358Z,101338.76
2018-01-15T06:28:40.104Z,101333.25
2018-01-15T06:31:05.866Z,101331.95
2018-01-15T06:33:31.622Z,101336.83
2018-01-15T06:35:57.358Z,101330.30
2018-01-15T06:38:23.121Z,101321.36
2018-01-15T06:40:48.874Z,101308.61
2018-01-15T06:43:14.632Z,101300.60
2018-01-15T06:45:40.382Z,101300.20
2018-01-15T06:48:06.151Z,101290.27
2018-01-15T06:50:31.895Z,101282.25
2018-01-15T06:52:57.658Z,101287.20
2018-01-15T06:55:23.414Z,101267.91
2018-01-15T06:57:49.187Z,101259.84
2018-01-15T07:00:14.936Z,101257.33
2018-01-15T07:02:40.702Z,101252.22
2018-01-15T07:05:06.464Z,101253.20
2018-01-15T07:07:32.239Z,101252.83
2018-01-15T07:09:57.993Z,101246.30
2018-01-15T07:12:23.748Z,101246.83
2018-01-15T07:14:49.518Z,101226.98
2018-01-15T07:17:15.322Z,101228.52
2018-01-15T07:19:41.040Z,101227.27
2018-01-15T07:22:06.786Z,101223.37
2018-01-15T07:24:32.555Z,101215.75
2018-01-15T07:26:58.306Z,101222.32
2018-01-15T07:29:24.070Z,101223.62
2018-01-15T07:31:49.818Z,101218.42
2018-01-15T07:36:45.931Z,101220.17
2018-01-15T07:39:11.698Z,101218.70
2018-01-15T07:41:37.453Z,101216.58
2018-01-15T07:44:03.213Z,101217.92
2018-01-15T07:46:28.971Z,101211.50
2018-01-15T07:48:54.746Z,101208.05
2018-01-15T07:51:20.508Z,101202.48
2018-01-15T07:53:46.282Z,101195.36
2018-01-15T07:56:12.028Z,101194.44
2018-01-15T07:58:37.787Z,101180.77
2018-01-15T08:01:03.553Z,101172.57
2018-01-15T08:03:29.311Z,101170.45
2018-01-15T08:05:55.077Z,101168.30
2018-01-15T08:08:20.830Z,101157.64
2018-01-15T08:10:46.594Z,101153.03
2018-01-15T08:13:12.357Z,101149.67
2018-01-15T08:15:38.126Z,101144.55
2018-01-15T08:18:03.878Z,101143.83
2018-01-15T08:20:29.646Z,101131.78
2018-01-15T08:22:55.391Z,101127.98
2018-01-15T08:25:21.155Z,101130.30
2018-01-15T08:27:46.935Z,101133.81
2018-01-15T08:30:12.683Z,101122.66
2018-01-15T08:32:38.455Z,101124.05
2018-01-15T08:35:04.228Z,101115.87
2018-01-15T08:37:29.978Z,101106.00
2018-01-15T08:39:55.743Z,101109.11
2018-01-15T08:42:21.520Z,101101.80
2018-01-15T08:44:47.287Z,101094.09
2018-01-15T08:47:13.050Z,101088.95
2018-01-15T08:49:38.819Z,101089.92
2018-01-15T08:52:04.592Z,101075.23
2018-01-15T08:54:30.352Z,101063.16
2018-01-15T08:56:57.138Z,101059.36
2018-01-15T08:59:22.903Z,101049.01
2018-01-15T09:01:48.671Z,101045.24
2018-01-15T09:04:14.418Z,101043.99
2018-01-15T09:06:40.191Z,101040.58
2018-01-15T09:09:12.942Z,101037.62
2018-01-15T09:11:38.705Z,101031.21
2018-01-15T09:14:04.451Z,101026.08
2018-01-15T09:16:30.222Z,101014.43
2018-01-15T09:18:55.966Z,101003.20
2018-01-15T09:21:21.742Z,101006.77
2018-01-15T09:23:47.499Z,101005.06
2018-01-15T09:26:13.259Z,101010.78
2018-01-15T09:28:39.016Z,100998.63
2018-01-15T09:31:04.758Z,100983.08
2018-01-15T09:33:30.510Z,100982.24
2018-01-15T09:35:56.258Z,100970.98
2018-01-15T09:38:22.027Z,100972.27
2018-01-15T09:40:47.772Z,100960.64
2018-01-15T09:43:13.542Z,100958.89
2018-01-15T09:45:39.310Z,100949.31
2018-01-15T09:48:05.071Z,100954.10
2018-01-15T09:50:30.849Z,100948.87
2018-01-15T09:52:56.617Z,100941.50
2018-01-15T09:55:22.367Z,100939.80
2018-01-15T09:57:48.142Z,100939.77
2018-01-15T10:00:13.904Z,100928.95
2018-01-15T10:02:39.666Z,100921.59
2018-01-15T10:05:05.481Z,100915.57
2018-01-15T10:07:31.195Z,100906.89
2018-01-15T10:09:56.959Z,100910.38
2018-01-15T10:12:22.709Z,100912.09
2018-01-15T10:14:48.462Z,100902.58
2018-01-15T10:17:14.214Z,100888.27
2018-01-15T10:19:39.974Z,100875.69
2018-01-15T10:22:05.747Z,100867.53
2018-01-15T10:24:31.507Z,100865.81
2018-01-15T10:26:57.275Z,100853.20
2018-01-15T10:29:23.039Z,100851.01
2018-01-15T10:31:48.786Z,100838.49
2018-01-15T10:34:14.547Z,100832.00
2018-01-15T10:36:40.303Z,100825.91
2018-01-15T10:39:06.076Z,100819.35
2018-01-15T10:41:31.837Z,100824.20
2018-01-15T10:43:57.611Z,100813.35
2018-01-15T10:46:23.362Z,100801.22
2018-01-15T10:48:49.134Z,100786.07
2018-01-15T10:51:14.906Z,100783.91
2018-01-15T10:53:40.651Z,100769.12
2018-01-15T10:56:06.422Z,100763.54
2018-01-15T10:58:32.190Z,100757.47
2018-01-15T11:00:57.966Z,100752.31
2018-01-15T11:03:23.722Z,100742.33
2018-01-15T11:05:49.486Z,100733.25
2018-01-15T11:08:15.251Z,100726.78
2018-01-15T11:10:41.014Z,100718.14
2018-01-15T11:13:06.762Z,100710.30
2018-01-15T11:15:32.530Z,100711.68
2018-01-15T11:17:58.274Z,100707.73
2018-01-15T11:20:24.040Z,100705.55
2018-01-15T11:22:49.794Z,100699.05
2018-01-15T11:25:15.565Z,100690.38
2018-01-15T11:27:41.318Z,100684.37
2018-01-15T11:30:07.102Z,100667.40
2018-01-15T11:32:32.855Z,100663.49
2018-01-15T11:34:58.630Z,100659.56
2018-01-15T11:37:24.366Z,100650.92
2018-01-15T11:39:50.159Z,100647.42
2018-01-15T11:42:15.900Z,100645.25
2018-01-15T11:44:41.655Z,100633.11
2018-01-15T11:47:07.419Z,100627.45
2018-01-15T11:49:33.171Z,100611.81
2018-01-15T11:51:58.940Z,100604.02
2018-01-15T11:54:24.698Z,100592.27
2018-01-15T11:56:50.470Z,100587.51
2018-01-15T11:59:16.218Z,100583.14
2018-01-15T12:01:41.975Z,100574.02
2018-01-15T12:04:07.726Z,100576.66
2018-01-15T12:06:33.490Z,100572.74
2018-01-15T12:08:59.238Z,100558.83
2018-01-15T12:11:24.998Z,100549.27
2018-01-15T12:13:50.742Z,100547.11
2018-01-15T12:16:16.505Z,100537.54
2018-01-15T12:18:42.262Z,100532.32
2018-01-15T12:21:08.034Z,100537.14
2018-01-15T12:23:33.777Z,100524.94
2018-01-15T12:25:59.531Z,100516.27
2018-01-15T12:28:25.291Z,100516.27
2018-01-15T12:30:51.058Z,100520.17
2018-01-15T12:33:16.822Z,100501.03
2018-01-15T12:35:42.574Z,100492.30
2018-01-15T12:38:09.134Z,100485.77
2018-01-15T12:40:34.886Z,100484.46
2018-01-15T12:43:00.650Z,100476.63
2018-01-15T12:45:26.406Z,100458.34
2018-01-15T12:47:52.172Z,100457.03
2018-01-15T12:50:17.936Z,100451.83
2018-01-15T12:52:43.703Z,100433.54
2018-01-15T12:55:09.455Z,100431.79
2018-01-15T12:57:35.211Z,100423.97
2018-01-15T13:00:01.210Z,100406.95
2018-01-15T13:04:59.421Z,100408.69
2018-01-15T13:07:37.436Z,100409.59
2018-01-15T13:10:03.202Z,100399.56
2018-01-15T13:12:28.968Z,100406.95
2018-01-15T13:14:54.738Z,100385.17
2018-01-15T13:17:20.490Z,100387.78
2018-01-15T13:19:46.254Z,100376.05
2018-01-15T13:22:12.021Z,100369.49
2018-01-15T13:24:37.783Z,100354.70
2018-01-15T13:27:03.542Z,100342.93
2018-01-15T13:29:29.316Z,100339.89
2018-01-15T13:31:55.082Z,100341.62
2018-01-15T13:34:20.851Z,100325.95
2018-01-15T13:36:46.610Z,100315.53
2018-01-15T13:39:12.363Z,100302.89
2018-01-15T13:41:38.138Z,100305.94
2018-01-15T13:44:03.894Z,100289.80
2018-01-15T13:46:29.677Z,100278.48
2018-01-15T13:48:55.458Z,100274.99
2018-01-15T13:51:21.227Z,100266.27
2018-01-15T13:53:46.979Z,100257.13
2018-01-15T13:56:12.759Z,100247.10
2018-01-15T13:58:38.515Z,100247.05
2018-01-15T14:01:04.275Z,100233.97
2018-01-15T14:03:30.034Z,100226.13
2018-01-15T14:05:55.807Z,100217.84
2018-01-15T14:08:21.554Z,100209.97
2018-01-15T14:10:47.318Z,100209.56
2018-01-15T14:13:13.067Z,100206.52
2018-01-15T14:15:38.830Z,100196.52
2018-01-15T14:18:04.578Z,100190.82
2018-01-15T14:20:30.372Z,100174.30
2018-01-15T14:22:56.101Z,100161.23
2018-01-15T14:25:21.854Z,100152.09
2018-01-15T14:27:47.619Z,100139.47
2018-01-15T14:30:13.387Z,100135.61
2018-01-15T14:32:39.151Z,100132.58
2018-01-15T14:35:04.898Z,100131.29
2018-01-15T14:37:30.662Z,100124.32
2018-01-15T14:39:56.423Z,100121.70
2018-01-15T14:42:22.194Z,100109.50
2018-01-15T14:44:47.943Z,100108.17
2018-01-15T14:47:13.699Z,100099.06
2018-01-15T14:49:39.466Z,100096.86
2018-01-15T14:52:05.234Z,100082.05
2018-01-15T14:54:30.991Z,100073.33
2018-01-15T14:56:56.750Z,100060.25
2018-01-15T14:59:22.503Z,100061.59
2018-01-15T15:01:48.270Z,100060.30
2018-01-15T15:04:14.033Z,100051.61
2018-01-15T15:06:39.813Z,100041.13
2018-01-15T15:09:05.571Z,100041.55
2018-01-15T15:11:31.334Z,100037.67
2018-01-15T15:13:57.111Z,100024.15
2018-01-15T15:16:22.890Z,100022.47
2018-01-15T15:18:48.650Z,100022.02
2018-01-15T15:21:14.399Z,100018.99
2018-01-15T15:23:40.175Z,100012.46
2018-01-15T15:26:05.929Z,99998.15
2018-01-15T15:28:31.698Z,99998.55
2018-01-15T15:30:57.445Z,99989.00
2018-01-15T15:33:23.210Z,99982.50
2018-01-15T15:35:49.011Z,99978.52
2018-01-15T15:38:14.786Z,99972.05
2018-01-15T15:40:40.538Z,99959.81
2018-01-15T15:43:06.497Z,99962.86
2018-01-15T15:45:32.267Z,99964.19
2018-01-15T15:47:58.164Z,99955.46
2018-01-15T15:50:23.945Z,99944.63
2018-01-15T15:52:49.689Z,99929.41
2018-01-15T15:55:15.574Z,99913.73
2018-01-15T15:57:41.333Z,99907.56
2018-01-15T16:00:07.098Z,99905.83
2018-01-15T16:02:32.846Z,99898.42
2018-01-15T16:04:58.612Z,99889.23
2018-01-15T16:07:24.678Z,99895.76
2018-01-15T16:09:50.450Z,99896.21
2018-01-15T16:12:16.222Z,99880.92
2018-01-15T16:14:41.982Z,99875.70
2018-01-15T16:17:07.790Z,99866.55
2018-01-15T16:19:33.546Z,99868.73
2018-01-15T16:25:04.068Z,99856.53
2018-01-15T16:27:29.814Z,99852.15
2018-01-15T16:29:55.593Z,99845.55
2018-01-15T16:32:21.354Z,99835.03
2018-01-15T16:34:47.130Z,99828.52
2018-01-15T16:37:12.878Z,99821.47
2018-01-15T16:39:38.716Z,99820.98
2018-01-15T16:42:04.476Z,99812.69
2018-01-15T16:44:30.345Z,99800.94
2018-01-15T16:46:56.107Z,99789.15
2018-01-15T16:49:21.902Z,99780.35
2018-01-15T16:51:47.701Z,99769.06
2018-01-15T16:54:13.546Z,99780.79
2018-01-15T16:56:39.298Z,99759.88
2018-01-15T16:59:05.079Z,99751.14
2018-01-15T17:01:30.975Z,99747.38
2018-01-15T17:03:56.743Z,99746.34
2018-01-15T17:06:22.634Z,99740.30
2018-01-15T17:08:48.500Z,99731.20
2018-01-15T17:11:14.546Z,99718.16
2018-01-15T17:13:40.353Z,99708.95
2018-01-15T17:16:06.191Z,99716.36
2018-01-15T17:18:31.951Z,99703.66
2018-01-15T17:20:57.727Z,99700.64
2018-01-15T17:23:23.490Z,99690.18
2018-01-15T17:25:49.283Z,99678.42
2018-01-15T17:28:15.171Z,99669.16
2018-01-15T17:30:41.019Z,99661.44
2018-01-15T17:33:06.767Z,99651.95
2018-01-15T17:35:32.537Z,99654.64
2018-01-15T17:37:58.318Z,99646.31
2018-01-15T17:40:24.061Z,99636.73
2018-01-15T17:42:49.818Z,99634.12
2018-01-15T17:45:15.605Z,99631.09
2018-01-15T17:47:41.361Z,99621.05
2018-01-15T17:50:07.119Z,99610.52
2018-01-15T17:52:32.891Z,99597.92
2018-01-15T17:54:58.650Z,99599.20
2018-01-15T17:57:24.398Z,99594.02
2018-01-15T17:59:50.189Z,99579.59
2018-01-15T18:02:15.982Z,99577.42
2018-01-15T18:04:41.763Z,99562.17
2018-01-15T18:07:07.524Z,99554.85
2018-01-15T18:09:33.282Z,99550.52
2018-01-15T18:11:59.051Z,99551.37
2018-01-15T18:14:24.927Z,99545.68
2018-01-15T18:16:50.697Z,99536.45
2018-01-15T18:19:16.471Z,99533.81
2018-01-15T18:21:42.381Z,99521.58
2018-01-15T18:24:08.146Z,99515.92
2018-01-15T18:26:33.910Z,99513.34
2018-01-15T18:28:59.674Z,99505.09
2018-01-15T18:31:25.473Z,99502.48
2018-01-15T18:33:51.234Z,99496.00
2018-01-15T18:36:17.022Z,99482.87
2018-01-15T18:38:42.799Z,99472.91
2018-01-15T18:41:08.554Z,99472.48
2018-01-15T18:43:34.368Z,99465.52
2018-01-15T18:46:00.086Z,99449.48
2018-01-15T18:48:25.849Z,99438.19
2018-01-15T18:50:51.609Z,99438.19
2018-01-15T18:53:17.378Z,99422.08
2018-01-15T18:55:43.139Z,99417.38
2018-01-15T18:58:08.951Z,99407.34
2018-01-15T19:00:34.710Z,99397.41
2018-01-15T19:03:00.510Z,99393.12
2018-01-15T19:05:26.249Z,99377.44
2018-01-15T19:07:52.007Z,99370.53
2018-01-15T19:10:17.773Z,99365.31
2018-01-15T19:12:43.542Z,99352.59
2018-01-15T19:15:09.318Z,99346.09
2018-01-15T19:17:35.070Z,99334.74
2018-01-15T19:20:00.838Z,99336.11
2018-01-15T19:22:26.606Z,99323.18
2018-01-15T19:24:52.374Z,99313.97
2018-01-15T19:27:18.144Z,99301.38
2018-01-15T19:29:43.926Z,99289.69
2018-01-15T19:32:09.695Z,99292.23
2018-01-15T19:34:41.519Z,99294.48
2018-01-15T19:37:07.295Z,99273.11
2018-01-15T19:39:33.083Z,99277.87
2018-01-15T19:41:58.881Z,99267.09
2018-01-15T19:47:32.535Z,99242.73
2018-01-15T19:50:04.410Z,99226.93
2018-01-15T19:52:36.292Z,99223.48
2018-01-15T19:55:08.162Z,99213.54
2018-01-15T19:57:39.970Z,99204.84
2018-01-15T20:00:11.851Z,99192.14
2018-01-15T20:02:43.605Z,99188.62
2018-01-15T20:05:15.419Z,99199.00
2018-01-15T20:07:47.218Z,99189.45
2018-01-15T20:13:14.486Z,99167.73
2018-01-15T20:15:40.266Z,99172.52
2018-01-15T20:18:06.018Z,99151.95
2018-01-15T20:20:31.786Z,99134.94
2018-01-15T20:22:57.602Z,99130.50
2018-01-15T20:25:23.362Z,99121.80
2018-01-15T20:27:49.385Z,99131.30
2018-01-15T20:30:15.159Z,99126.48
2018-01-15T20:32:40.979Z,99125.64
2018-01-15T20:35:06.730Z,99122.88
2018-01-15T20:37:32.502Z,99111.99
2018-01-15T20:39:58.259Z,99087.20
2018-01-15T20:42:24.016Z,99083.77
2018-01-15T20:44:49.909Z,99075.93
2018-01-15T20:47:15.682Z,99068.05
2018-01-15T20:49:41.446Z,99055.02
2018-01-15T20:52:07.209Z,99041.09
2018-01-15T20:54:33.109Z,99030.64
2018-01-15T20:56:58.854Z,99022.92
2018-01-15T20:59:24.666Z,99016.59
2018-01-15T21:01:50.443Z,98999.12
2018-01-15T21:04:16.197Z,99000.83
2018-01-15T21:06:41.966Z,98995.39
2018-01-15T21:09:07.718Z,98988.47
2018-01-15T21:11:33.477Z,98980.86
2018-01-15T21:13:59.247Z,98976.94
2018-01-15T21:16:24.997Z,98964.44
2018-01-15T21:18:50.838Z,98947.36
2018-01-15T21:21:16.620Z,98939.17
2018-01-15T21:23:42.400Z,98931.69
2018-01-15T21:26:08.155Z,98921.66
2018-01-15T21:28:33.931Z,98913.34
2018-01-15T21:30:59.673Z,98903.41
2018-01-15T21:33:25.442Z,98905.45
2018-01-15T21:35:51.182Z,98906.47
2018-01-15T21:38:16.939Z,98892.56
2018-01-15T21:40:42.699Z,98880.72
2018-01-15T21:43:08.769Z,98868.91
2018-01-15T21:45:34.542Z,98861.69
2018-01-15T21:48:00.328Z,98854.63
2018-01-15T21:50:26.415Z,98845.58
2018-01-15T21:52:52.389Z,98837.69
2018-01-15T21:55:18.150Z,98825.06
2018-01-15T21:57:43.918Z,98825.11
2018-01-15T22:00:09.702Z,98826.47
2018-01-15T22:02:35.463Z,98813.78
2018-01-15T22:05:01.239Z,98809.87
2018-01-15T22:07:26.979Z,98797.63
2018-01-15T22:09:52.746Z,98785.38
2018-01-15T22:12:18.590Z,98783.30
2018-01-15T22:14:44.369Z,98792.15
2018-01-15T22:17:10.508Z,98771.64
2018-01-15T22:19:36.279Z,98765.11
2018-01-15T22:22:02.371Z,98757.61
2018-01-15T22:24:28.171Z,98747.30
2018-01-15T22:26:53.998Z,98739.03
2018-01-15T22:29:19.769Z,98727.60
2018-01-15T22:31:45.523Z,98715.02
2018-01-15T22:34:11.283Z,98712.95
2018-01-15T22:36:37.060Z,98708.59
2018-01-15T22:39:02.813Z,98697.61
2018-01-15T22:41:28.590Z,98699.48
2018-01-15T22:43:54.353Z,98698.73
2018-01-15T22:46:20.124Z,98686.42
2018-01-15T22:48:45.896Z,98678.20
2018-01-15T22:51:11.650Z,98681.30
2018-01-15T22:53:37.397Z,98669.11
2018-01-15T22:56:03.173Z,98669.06
2018-01-15T22:58:28.922Z,98668.69
2018-01-15T23:00:54.695Z,98654.84
2018-01-15T23:03:20.456Z,98654.80
2018-01-15T23:05:46.231Z,98644.83
2018-01-15T23:08:11.973Z,98650.49
2018-01-15T23:10:37.729Z,98638.40
2018-01-15T23:13:03.550Z,98631.48
2018-01-15T23:15:29.373Z,98620.66
2018-01-15T23:17:55.161Z,98624.13
2018-01-15T23:20:20.918Z,98627.28
2018-01-15T23:22:46.696Z,98614.22
2018-01-15T23:25:12.430Z,98605.61
2018-01-15T23:27:38.266Z,98611.80
2018-01-15T23:30:04.007Z,98603.57
2018-01-15T23:32:29.772Z,98595.80
2018-01-15T23:34:55.524Z,98587.95
2018-01-15T23:37:21.290Z,98579.73
2018-01-15T23:39:47.043Z,98578.23
2018-01-15T23:42:13.015Z,98565.22
2018-01-15T23:44:38.787Z,98573.53
2018-01-15T23:47:04.555Z,98550.08
2018-01-15T23:49:30.321Z,98555.55
2018-01-15T23:51:56.074Z,98554.25
2018-01-15T23:54:31.971Z,98546.52
2018-01-15T23:56:57.712Z,98542.09
2018-01-15T23:59:23.457Z,98533.67
